CDT,Max TemperatureF,Mean TemperatureF,Min TemperatureF,Max Dew PointF,MeanDew PointF,Min DewpointF,Max Humidity, Mean Humidity, Min Humidity, Max Sea Level PressureIn, Mean Sea Level PressureIn, Min Sea Level PressureIn, Max VisibilityMiles, Mean VisibilityMiles, Min VisibilityMiles, Max Wind SpeedMPH, Mean Wind SpeedMPH, Max Gust SpeedMPH,PrecipitationIn, CloudCover, Events, WindDirDegrees
2013-7-1,90,77,63,58,53,48,78,52,26,30.01,29.96,29.91,10,10,6,20,9,26,0.00,1,,2
2013-7-2,93,77,61,57,50,41,61,40,18,30.07,30.01,29.97,10,10,10,16,7,25,0.00,1,,352
2013-7-3,95,77,58,57,49,44,72,46,20,30.04,29.99,29.90,10,10,10,14,4,24,0.00,1,,24
2013-7-4,97,83,69,65,57,50,79,51,22,29.99,29.93,29.86,10,10,10,22,9,25,0.00,0,,150
2013-7-5,99,83,67,65,58,53,81,52,22,29.98,29.91,29.83,10,10,9,17,8,21,0.00,0,,154
2013-7-6,99,85,71,66,61,56,73,49,25,29.94,29.89,29.81,10,10,9,17,8,25,0.00,0,,145
2013-7-7,99,87,74,71,67,62,84,58,31,30.00,29.93,29.87,10,10,10,25,9,31,0.00,2,,146
2013-7-8,96,87,78,72,69,61,79,59,38,30.09,30.03,29.96,10,10,10,28,13,31,0.00,4,,174
2013-7-9,100,88,76,73,68,62,94,63,31,30.15,30.06,29.96,10,10,10,20,12,24,0.00,1,,180
2013-7-10,102,90,78,72,67,61,79,53,27,30.06,29.99,29.89,10,10,10,16,11,22,0.00,0,,177
2013-7-11,103,91,79,70,67,62,74,52,29,29.97,29.92,29.84,10,10,10,23,9,30,0.00,1,,166
2013-7-12,103,89,74,69,65,60,79,52,25,29.95,29.89,29.83,10,10,10,14,6,18,0.00,0,,147
2013-7-13,104,90,76,68,63,56,69,46,23,29.96,29.89,29.82,10,10,10,18,6,24,0.00,1,,114
2013-7-14,84,76,68,68,63,54,93,65,37,30.01,29.94,29.84,10,6,2,21,9,24,2.45,6,Rain-Thunderstorm,56
2013-7-15,75,71,67,72,68,66,100,94,87,30.07,30.00,29.94,10,4,1,13,7,17,2.20,8,Rain,71
2013-7-16,86,80,73,75,71,67,93,80,67,30.15,30.08,30.04,10,8,2,23,6,26,0.07,4,Rain,85
2013-7-17,88,81,73,75,72,68,94,84,74,30.21,30.16,30.12,10,9,2,28,5,33,0.28,5,Rain,90
2013-7-18,94,84,73,74,70,65,94,68,41,30.17,30.10,29.99,10,8,2,13,4,17,0.00,2,,58
2013-7-19,95,84,72,71,68,60,87,60,33,30.05,29.99,29.91,10,10,10,26,9,33,0.00,0,,174
2013-7-20,96,85,73,72,69,65,87,62,36,29.99,29.92,29.83,10,10,9,18,8,22,0.00,1,,171
2013-7-21,97,86,74,74,71,65,88,62,35,29.94,29.90,29.84,10,10,10,31,11,36,0.00,0,,182
2013-7-22,97,88,78,74,72,69,85,64,42,29.99,29.93,29.85,10,10,10,23,14,29,0.00,3,,185
2013-7-23,98,88,77,74,70,63,88,60,31,30.00,29.93,29.83,10,10,7,21,13,25,0.00,1,,186
2013-7-24,95,86,76,73,72,67,94,70,46,29.99,29.91,29.86,10,10,7,18,7,22,0.00,1,,168
2013-7-25,97,87,77,74,72,68,85,63,40,30.04,29.97,29.94,10,10,8,16,6,21,0.00,1,,110
2013-7-26,97,87,77,75,71,68,85,64,42,30.00,29.92,29.83,10,8,1,33,10,39,0.50,3,Rain-Thunderstorm,174
2013-7-27,89,81,72,75,70,67,91,71,50,30.01,29.95,29.89,10,10,10,17,9,21,0.00,5,,37
2013-7-28,93,82,71,72,69,66,90,68,46,29.98,29.92,29.83,10,10,6,15,7,20,0.00,2,,118
2013-7-29,96,87,77,74,70,62,88,62,35,30.01,29.95,29.90,10,10,7,23,15,28,0.00,3,,173
2013-7-30,97,87,77,73,70,65,82,60,38,30.10,30.01,29.94,10,10,10,23,14,29,0.00,2,,180
2013-7-31,100,89,77,73,68,63,82,57,31,30.07,29.99,29.90,10,10,10,18,9,23,0.00,2,,186